Time;durP1;ratioP1;P1;durP2;ratioP2;P2;SDS_P1;SDS_P2;PMS_P1;PMS_P2;Temp;Humidity;BMP_temperature;BMP_pressure;BME280_temperature;BME280_humidity;BME280_pressure;Samples;Min_cycle;Max_cycle;Signal;HPM_P1;HPM_P2
2022/01/21 00:04:53;;;;;;;1999.90;999.90;;;;;;;1.06;58.32;101803.16;15639921;28;20063;-72
2022/01/21 00:12:30;;;;;;;1999.90;999.90;;;;;;;0.94;58.15;101796.81;15686334;28;20404;-72
2022/01/21 00:35:46;;;;;;;1999.90;999.90;;;;;;;0.91;57.74;101822.88;15666836;28;20056;-72
2022/01/21 00:43:29;;;;;;;1999.90;999.90;;;;;;;1.10;57.53;101829.91;15650691;28;20040;-71
2022/01/21 00:51:05;;;;;;;1999.90;999.90;;;;;;;1.15;56.86;101856.69;15667069;28;20045;-72
2022/01/21 00:58:39;;;;;;;1999.90;999.90;;;;;;;0.96;57.32;101857.91;15672968;28;20072;-71
2022/01/21 01:06:14;;;;;;;1999.90;999.90;;;;;;;1.04;56.69;101869.38;15686161;28;20106;-73
2022/01/21 01:21:43;;;;;;;1999.90;999.90;;;;;;;1.19;56.82;101876.28;15620345;28;20053;-71
2022/01/21 01:29:18;;;;;;;1999.90;999.90;;;;;;;1.09;56.89;101874.97;15619683;28;20425;-71
2022/01/21 01:36:57;;;;;;;1999.90;999.90;;;;;;;0.89;57.82;101882.75;15605264;28;20060;-72
2022/01/21 01:52:23;;;;;;;1999.90;999.90;;;;;;;0.90;57.04;101883.59;15653670;28;20399;-72
2022/01/21 01:59:58;;;;;;;1999.90;999.90;;;;;;;0.88;57.05;101883.84;15635380;28;20063;-72
2022/01/21 02:07:31;;;;;;;1999.90;999.90;;;;;;;0.71;58.22;101871.91;15601317;28;20579;-72
2022/01/21 02:15:06;;;;;;;1999.90;999.90;;;;;;;0.57;58.18;101871.31;15696943;28;20055;-73
2022/01/21 02:22:50;;;;;;;1999.90;999.90;;;;;;;0.63;57.67;101878.59;15696265;28;20044;-73
2022/01/21 02:30:36;;;;;;;1999.90;999.90;;;;;;;0.52;58.59;101882.16;15660889;28;20068;-72
2022/01/21 02:38:10;;;;;;;1999.90;999.90;;;;;;;0.63;58.08;101895.09;15644212;28;20048;-73
2022/01/21 02:46:05;;;;;;;;;;;;;;;;;;;;;
2022/01/21 02:54:34;;;;;;;;;;;;;;;;;;;;;
2022/01/21 03:03:03;;;;;;;;;;;;;;;;;;;;;
2022/01/21 03:10:55;;;;;;;1999.90;999.90;;;;;;;0.49;57.71;101905.44;15672696;28;20041;-74
2022/01/21 03:19:09;;;;;;;;;;;;;;;;;;;;;
2022/01/21 03:27:47;;;;;;;;;;;;;;;;;;;;;
2022/01/21 03:36:40;;;;;;;;;;;;;;;;;;;;;
2022/01/21 03:44:43;;;;;;;1999.90;999.90;;;;;;;0.35;57.64;101942.44;15598210;28;20057;-72
2022/01/21 03:52:17;;;;;;;1999.90;999.90;;;;;;;-0.25;58.69;101934.25;15668549;28;20072;-71
2022/01/21 03:59:51;;;;;;;1999.90;999.90;;;;;;;0.22;57.83;101950.91;15668730;28;20170;-71
2022/01/21 04:07:24;;;;;;;1999.90;999.90;;;;;;;-0.02;58.91;101950.78;15651344;28;20296;-73
2022/01/21 04:15:08;;;;;;;1999.90;999.90;;;;;;;0.11;58.24;101951.69;15607610;28;20038;-73
2022/01/21 04:22:41;;;;;;;1999.90;999.90;;;;;;;-0.39;59.10;101951.94;15644622;28;20050;-72
2022/01/21 04:30:15;;;;;;;1999.90;999.90;;;;;;;-0.11;58.61;101954.94;15666985;28;20045;-73
2022/01/21 04:37:53;;;;;;;1999.90;999.90;;;;;;;0.08;57.93;101949.41;15622549;28;20151;-72
2022/01/21 04:53:19;;;;;;;1999.90;999.90;;;;;;;-0.19;59.01;101943.47;15637879;28;20044;-72
2022/01/21 05:00:55;;;;;;;1999.90;999.90;;;;;;;-0.05;58.52;101956.75;15529775;22;20046;-64
2022/01/21 05:08:38;;;;;;;1999.90;999.90;;;;;;;-0.28;58.22;101940.19;15503414;23;20124;-56
2022/01/21 05:16:29;;;;;;;1999.90;999.90;;;;;;;-0.23;58.31;101945.81;15483391;28;20050;-56
2022/01/21 05:24:04;;;;;;;1999.90;999.90;;;;;;;-0.14;57.73;101951.81;15476390;28;20045;-54
2022/01/21 05:31:40;;;;;;;1999.90;999.90;;;;;;;-0.27;58.47;101952.00;15550536;28;20132;-56
2022/01/21 05:39:27;;;;;;;1999.90;999.90;;;;;;;-0.08;58.17;101951.75;15533183;28;20054;-55
2022/01/21 05:47:10;;;;;;;1999.90;999.90;;;;;;;-0.26;58.59;101937.22;15534284;28;20391;-57
2022/01/21 05:55:13;;;;;;;1999.90;999.90;;;;;;;-0.03;57.77;101934.56;15552799;28;20124;-56
2022/01/21 06:02:51;;;;;;;1999.90;999.90;;;;;;;-0.49;58.94;101935.19;15516737;28;20407;-56
2022/01/21 06:10:23;;;;;;;1999.90;999.90;;;;;;;-0.35;58.74;101937.53;15514511;28;20045;-57
2022/01/21 06:17:57;;;;;;;1999.90;999.90;;;;;;;-0.31;59.22;101932.44;15537501;28;20061;-55
2022/01/21 06:25:30;;;;;;;1999.90;999.90;;;;;;;-0.57;59.58;101943.72;15554319;28;20506;-52
2022/01/21 06:33:05;;;;;;;1999.90;999.90;;;;;;;-0.38;59.52;101956.38;15556447;28;20053;-56
2022/01/21 06:40:40;;;;;;;1999.90;999.90;;;;;;;-0.37;59.26;101950.66;15551881;28;20046;-57
2022/01/21 06:48:14;;;;;;;1999.90;999.90;;;;;;;-0.41;60.15;101965.91;15514676;28;20045;-59
2022/01/21 06:55:47;;;;;;;1999.90;999.90;;;;;;;-0.37;59.83;101958.03;15550769;28;20046;-56
2022/01/21 07:03:21;;;;;;;1999.90;999.90;;;;;;;-0.63;60.97;101960.00;15517904;28;20049;-57
2022/01/21 07:10:54;;;;;;;1999.90;999.90;;;;;;;-0.57;60.21;101973.88;15526986;28;20060;-60
2022/01/21 07:18:31;;;;;;;1999.90;999.90;;;;;;;-0.40;61.14;101974.97;15531541;28;20148;-59
2022/01/21 07:26:06;;;;;;;1999.90;999.90;;;;;;;-0.45;61.01;101975.63;15530404;28;20053;-61
2022/01/21 07:33:40;;;;;;;1999.90;999.90;;;;;;;-0.37;61.89;101979.97;15561791;28;20061;-59
2022/01/21 07:41:13;;;;;;;1999.90;999.90;;;;;;;-0.32;62.37;101997.41;15561458;28;20864;-58
2022/01/21 07:48:47;;;;;;;1999.90;999.90;;;;;;;-0.03;62.23;102003.19;15545132;28;20050;-56
2022/01/21 07:56:20;;;;;;;1999.90;999.90;;;;;;;0.05;62.16;102005.59;15543622;28;20073;-56
2022/01/21 08:03:54;;;;;;;1999.90;999.90;;;;;;;0.11;63.64;102003.84;15543751;28;20502;-56
2022/01/21 08:11:27;;;;;;;1999.90;999.90;;;;;;;0.29;63.44;101996.38;15527689;28;20065;-56
2022/01/21 08:19:03;;;;;;;1999.90;999.90;;;;;;;0.49;62.95;102004.31;15505461;28;20042;-54
2022/01/21 08:26:37;;;;;;;1999.90;999.90;;;;;;;0.66;63.43;102020.97;15555997;28;20104;-56
2022/01/21 08:34:11;;;;;;;1999.90;999.90;;;;;;;0.89;63.28;102020.19;15524414;28;20418;-58
2022/01/21 08:41:44;;;;;;;1999.90;999.90;;;;;;;1.35;62.34;102024.84;15537865;28;20136;-55
2022/01/21 08:49:20;;;;;;;1999.90;999.90;;;;;;;1.62;62.42;102019.69;15537430;28;20046;-56
2022/01/21 08:56:55;;;;;;;1999.90;999.90;;;;;;;2.26;60.33;102023.22;15536646;28;20470;-57
2022/01/21 09:04:29;;;;;;;1999.90;999.90;;;;;;;2.99;58.38;102017.91;15518870;28;20042;-56
2022/01/21 09:12:01;;;;;;;1999.90;999.90;;;;;;;3.92;56.28;102017.06;15552946;28;20050;-58
2022/01/21 09:19:35;;;;;;;1999.90;999.90;;;;;;;4.51;54.86;102031.00;15535576;28;20045;-54
2022/01/21 09:27:09;;;;;;;1999.90;999.90;;;;;;;5.57;52.74;102027.44;15519034;28;20137;-53
2022/01/21 09:34:43;;;;;;;1999.90;999.90;;;;;;;5.54;52.09;102041.84;15554121;28;20177;-56
2022/01/21 09:42:16;;;;;;;1999.90;999.90;;;;;;;6.40;50.87;102057.22;15514652;28;20093;-52
2022/01/21 09:49:50;;;;;;;1999.90;999.90;;;;;;;9.02;45.01;102046.94;15510990;28;20049;-56
2022/01/21 09:57:25;;;;;;;1999.90;999.90;;;;;;;8.18;46.65;102046.00;15551922;28;20042;-61
2022/01/21 10:04:59;;;;;;;1999.90;999.90;;;;;;;8.32;46.52;102038.69;15532122;28;20056;-56
2022/01/21 10:13:03;;;;;;;1999.90;999.90;;;;;;;7.44;47.84;102054.00;15548662;28;20057;-56
2022/01/21 10:20:37;;;;;;;1999.90;999.90;;;;;;;7.49;48.02;102037.31;15549462;28;20491;-56
2022/01/21 10:28:13;;;;;;;1999.90;999.90;;;;;;;9.21;44.35;102045.94;15514375;28;20171;-55
2022/01/21 10:35:49;;;;;;;1999.90;999.90;;;;;;;9.68;43.56;102047.13;15532100;28;20033;-56
2022/01/21 10:43:22;;;;;;;1999.90;999.90;;;;;;;9.22;44.17;102047.59;15530751;28;20509;-56
2022/01/21 10:51:19;;;;;;;1999.90;999.90;;;;;;;10.31;41.92;102066.50;15513888;28;20121;-56
2022/01/21 10:59:00;;;;;;;1999.90;999.90;;;;;;;8.91;43.91;102060.91;15513530;28;20053;-60
2022/01/21 11:06:58;;;;;;;1999.90;999.90;;;;;;;8.73;44.15;102066.34;15529863;28;20048;-56
2022/01/21 11:14:56;;;;;;;1999.90;999.90;;;;;;;9.06;43.64;102068.31;15672523;23;20489;-64
2022/01/21 11:22:53;;;;;;;1999.90;999.90;;;;;;;10.18;41.77;102061.63;15676947;28;20132;-65
2022/01/21 11:30:28;;;;;;;1999.90;999.90;;;;;;;9.85;40.29;102049.47;15630314;28;20063;-65
2022/01/21 11:38:10;;;;;;;1999.90;999.90;;;;;;;11.04;39.41;102061.56;15641005;28;20040;-65
2022/01/21 11:46:15;;;;;;;1999.90;999.90;;;;;;;10.21;38.86;102051.84;15642429;28;20379;-65
2022/01/21 11:53:50;;;;;;;1999.90;999.90;;;;;;;11.76;36.42;102029.25;15643614;28;20044;-65
2022/01/21 12:01:34;;;;;;;1999.90;999.90;;;;;;;11.62;36.77;102034.00;15687300;28;20102;-65
2022/01/21 12:09:13;;;;;;;1999.90;999.90;;;;;;;12.09;35.88;102032.03;15672727;28;20115;-65
2022/01/21 12:16:56;;;;;;;1999.90;999.90;;;;;;;12.03;36.14;102017.28;15622775;28;20045;-65
2022/01/21 12:24:54;;;;;;;1999.90;999.90;;;;;;;13.00;34.66;102038.31;15623001;28;20041;-65
2022/01/21 12:32:51;;;;;;;1999.90;999.90;;;;;;;12.02;35.48;102045.59;15621826;28;20506;-65
2022/01/21 12:40:44;;;;;;;1999.90;999.90;;;;;;;11.62;36.32;102039.59;15622316;28;20054;-65
2022/01/21 12:48:31;;;;;;;1999.90;999.90;;;;;;;11.69;35.72;102026.06;15679590;28;20421;-65
2022/01/21 12:56:20;;;;;;;1999.90;999.90;;;;;;;12.06;35.32;102019.47;15682409;28;20045;-65
2022/01/21 13:03:55;;;;;;;1999.90;999.90;;;;;;;14.22;32.13;102023.00;15699248;28;20041;-63
2022/01/21 13:11:30;;;;;;;1999.90;999.90;;;;;;;14.47;31.33;102029.84;15681943;28;20111;-65
2022/01/21 13:19:05;;;;;;;1999.90;999.90;;;;;;;12.41;35.42;102022.66;15648137;28;20049;-65
2022/01/21 13:26:41;;;;;;;1999.90;999.90;;;;;;;9.98;38.78;102020.03;15672150;28;20049;-63
2022/01/21 13:34:16;;;;;;;1999.90;999.90;;;;;;;9.59;39.63;102028.56;15619317;28;20041;-64
2022/01/21 13:41:54;;;;;;;1999.90;999.90;;;;;;;11.36;36.73;102016.91;15696957;28;20052;-64
2022/01/21 13:49:34;;;;;;;1999.90;999.90;;;;;;;9.04;38.69;102028.81;15695953;28;20386;-64
2022/01/21 13:57:35;;;;;;;1999.90;999.90;;;;;;;13.49;32.13;102035.72;15623396;28;20049;-66
2022/01/21 14:05:15;;;;;;;1999.90;999.90;;;;;;;11.13;34.36;102041.03;15619513;28;20041;-66
2022/01/21 14:13:00;;;;;;;1999.90;999.90;;;;;;;8.84;36.49;102026.16;15618880;28;20045;-64
2022/01/21 14:20:35;;;;;;;1999.90;999.90;;;;;;;6.27;42.23;102012.28;15627779;28;20219;-66
2022/01/21 14:28:11;;;;;;;1999.90;999.90;;;;;;;6.03;42.54;102019.38;15648189;28;20127;-64
2022/01/21 14:35:46;;;;;;;1999.90;999.90;;;;;;;6.01;43.15;102019.66;15681834;28;20037;-64
2022/01/21 14:43:21;;;;;;;1999.90;999.90;;;;;;;5.83;43.70;102014.53;15679193;28;20169;-63
2022/01/21 14:51:07;;;;;;;1999.90;999.90;;;;;;;5.63;43.21;102020.00;15673406;28;20532;-63
2022/01/21 14:58:45;;;;;;;1999.90;999.90;;;;;;;5.58;41.69;102017.19;15655752;28;20049;-62
2022/01/21 15:06:22;;;;;;;1999.90;999.90;;;;;;;5.27;42.59;102017.00;15645855;28;20056;-63
2022/01/21 15:14:25;;;;;;;1999.90;999.90;;;;;;;5.42;42.54;102008.81;15681153;28;20111;-64
2022/01/21 15:22:13;;;;;;;1999.90;999.90;;;;;;;5.21;43.68;102010.59;15613163;28;20045;-66
2022/01/21 15:29:52;;;;;;;1999.90;999.90;;;;;;;5.29;43.68;102005.66;15623289;28;20053;-63
2022/01/21 15:38:12;;;;;;;1999.90;999.90;;;;;;;4.99;44.64;102009.84;15687775;28;20060;-65
2022/01/21 15:46:06;;;;;;;;;;;;;;;5.19;44.25;101990.63;15687313;28;20056;-64
2022/01/21 15:53:45;;;;;;;1999.90;999.90;;;;;;;4.45;45.96;101975.91;15702959;28;19920;-65
2022/01/21 16:01:23;;;;;;;1999.90;999.90;;;;;;;4.55;46.57;101981.53;15687690;28;20041;-65
2022/01/21 16:08:56;;;;;;;1999.90;999.90;;;;;;;4.04;48.11;101984.59;15641296;28;20545;-65
2022/01/21 16:16:30;;;;;;;1999.90;999.90;;;;;;;4.15;48.55;101971.72;15640473;28;20041;-65
2022/01/21 16:24:09;;;;;;;1999.90;999.90;;;;;;;4.24;49.18;101972.09;15623834;28;20502;-64
2022/01/21 16:31:50;;;;;;;1999.90;999.90;;;;;;;3.95;49.46;101968.75;15624565;28;20049;-65
2022/01/21 16:39:37;;;;;;;1999.90;999.90;;;;;;;3.54;51.00;101968.22;15625900;28;20092;-65
2022/01/21 16:47:28;;;;;;;1999.90;999.90;;;;;;;3.75;50.89;101966.56;15623651;28;20056;-65
2022/01/21 16:55:01;;;;;;;1999.90;999.90;;;;;;;3.55;51.40;101960.81;15667200;28;20044;-65
2022/01/21 17:02:36;;;;;;;1999.90;999.90;;;;;;;3.62;52.09;101975.25;15673793;28;20037;-63
2022/01/21 17:10:29;;;;;;;1999.90;999.90;;;;;;;3.94;52.20;101986.41;15650862;22;20053;-60
2022/01/21 17:18:20;;;;;;;1999.90;999.90;;;;;;;3.79;53.27;101970.50;15588491;28;20144;-60
2022/01/21 17:25:59;;;;;;;1999.90;999.90;;;;;;;3.76;54.09;101963.56;15502723;28;20377;-60
2022/01/21 17:33:43;;;;;;;1999.90;999.90;;;;;;;3.87;54.87;101953.47;15490463;28;20050;-61
2022/01/21 17:41:16;;;;;;;1999.90;999.90;;;;;;;3.87;55.47;101944.38;15525367;28;20081;-60
2022/01/21 17:48:51;;;;;;;1999.90;999.90;;;;;;;3.98;56.21;101924.88;15550896;28;20038;-60
2022/01/21 17:56:23;;;;;;;1999.90;999.90;;;;;;;3.81;57.25;101923.28;15548508;28;20061;-59
2022/01/21 18:04:00;;;;;;;1999.90;999.90;;;;;;;3.82;58.48;101933.25;15555161;28;20050;-60
2022/01/21 18:11:33;;;;;;;1999.90;999.90;;;;;;;3.93;59.67;101929.50;15585706;28;20383;-64
2022/01/21 18:19:12;;;;;;;1999.90;999.90;;;;;;;4.17;60.68;101921.75;15532620;28;20200;-60
2022/01/21 18:26:55;;;;;;;1999.90;999.90;;;;;;;4.47;61.04;101919.25;15545116;28;20380;-63
2022/01/21 18:34:31;;;;;;;1999.90;999.90;;;;;;;4.26;62.66;101911.88;15592404;28;20486;-62
2022/01/21 18:42:06;;;;;;;1999.90;999.90;;;;;;;4.59;63.01;101897.84;15576159;28;20049;-63
2022/01/21 18:49:44;;;;;;;1999.90;999.90;;;;;;;4.47;64.61;101904.63;15514171;28;20073;-60
2022/01/21 18:57:18;;;;;;;1999.90;999.90;;;;;;;4.61;64.80;101890.09;15548274;28;20126;-59
2022/01/21 19:04:54;;;;;;;1999.90;999.90;;;;;;;4.91;64.68;101888.66;15534809;28;20042;-61
2022/01/21 19:12:28;;;;;;;1999.90;999.90;;;;;;;5.11;65.99;101897.09;15563554;28;20049;-62
2022/01/21 19:20:03;;;;;;;;;;;;;;;5.11;65.24;101886.00;15564321;28;20050;-59
2022/01/21 19:27:37;;;;;;;1999.90;999.90;;;;;;;4.82;67.00;101890.25;15546421;28;19928;-59
2022/01/21 19:35:19;;;;;;;1999.90;999.90;;;;;;;5.07;67.69;101875.72;15523442;28;20422;-61
2022/01/21 19:42:53;;;;;;;1999.90;999.90;;;;;;;4.90;69.08;101875.94;15526192;28;20489;-61
2022/01/21 19:50:30;;;;;;;1999.90;999.90;;;;;;;4.81;71.21;101870.06;15500613;28;20133;-61
2022/01/21 19:58:08;;;;;;;1999.90;999.90;;;;;;;4.95;71.97;101855.75;15531180;28;20068;-60
2022/01/21 20:05:57;;;;;;;1999.90;999.90;;;;;;;4.61;74.48;101850.56;15512945;28;20038;-59
2022/01/21 20:13:38;;;;;;;1999.90;999.90;;;;;;;4.72;74.46;101848.69;15552051;28;20490;-60
2022/01/21 20:21:22;;;;;;;1999.90;999.90;;;;;;;4.71;75.91;101833.22;15522962;28;20050;-63
2022/01/21 20:28:56;;;;;;;1999.90;999.90;;;;;;;4.79;76.21;101818.84;15537489;28;20597;-62
2022/01/21 20:36:36;;;;;;;1999.90;999.90;;;;;;;4.76;76.91;101803.63;15559950;28;20123;-61
2022/01/21 20:44:09;;;;;;;1999.90;999.90;;;;;;;4.55;79.17;101791.63;15533676;28;20484;-62
2022/01/21 20:51:44;;;;;;;1999.90;999.90;;;;;;;4.80;78.50;101779.91;15513306;28;20065;-61
2022/01/21 20:59:17;;;;;;;1999.90;999.90;;;;;;;4.69;79.65;101769.03;15542058;28;20046;-63
2022/01/21 21:06:52;;;;;;;1999.90;999.90;;;;;;;4.86;79.36;101770.50;15504427;28;20049;-61
2022/01/21 21:14:31;;;;;;;1999.90;999.90;;;;;;;4.83;80.39;101756.41;15490935;28;20043;-61
2022/01/21 21:30:10;;;;;;;1999.90;999.90;;;;;;;4.62;81.32;101730.56;15515161;28;20103;-61
2022/01/21 22:44:45;;;;;;;1999.90;999.90;;;;;;;5.63;80.82;101682.16;15485020;28;20066;-61
2022/01/21 23:04:48;;;;;;;1999.90;999.90;;;;;;;6.14;79.06;101662.72;15466316;28;20053;-61
2022/01/21 23:12:22;;;;;;;1999.90;999.90;;;;;;;5.92;80.16;101644.50;15531660;23;20049;-65
2022/01/21 23:19:55;;;;;;;1999.90;999.90;;;;;;;5.70;81.10;101652.22;15520258;28;20053;-65
2022/01/21 23:27:36;;;;;;;1999.90;999.90;;;;;;;5.71;81.84;101654.72;15536101;28;20080;-66
2022/01/21 23:35:12;;;;;;;1999.90;999.90;;;;;;;6.09;80.85;101644.19;15536378;28;20038;-66
2022/01/21 23:42:48;;;;;;;1999.90;999.90;;;;;;;6.00;81.50;101649.47;15553669;28;20311;-64
2022/01/21 23:50:24;;;;;;;1999.90;999.90;;;;;;;6.18;81.13;101653.59;15557496;28;20049;-65
2022/01/21 23:57:58;;;;;;;1999.90;999.90;;;;;;;6.23;80.82;101663.81;15531113;28;20081;-65
